CCA370 FEFF-DXXX
Flight info
| Callsign | CCA370 |
|---|---|
| Flight time | 2h 24m |
| Altitude | 36000 |
| Route | ANIPA UQ583 USLOK UL433 MONOS |
| Aircraft | B738/M-SDE2E3FGHIRWXY/LB1 |
Departure
| Time | 2026-04-25 12:23 |
|---|---|
| Airport | Bangui M'Poko International Airport (FEFF) |
Arrival
| Time | 2026-04-25 14:47 |
|---|---|
| Airport | Lomé–Tokoin International Airport (DXXX) |
| Time | Latitude | Longitude | Altitude | Speed | Heading |
|---|---|---|---|---|---|
| 2026-04-25 11:52 | 4.39930 | 18.52321 | 1213 ft | 0 kts | 76° |
| 2026-04-25 12:14 | 4.39927 | 18.52311 | 1212 ft | 2 kts | 75° |
| 2026-04-25 12:14 | 4.39924 | 18.52297 | 1212 ft | 2 kts | 75° |
| 2026-04-25 12:14 | 4.39919 | 18.52282 | 1212 ft | 2 kts | 75° |
| 2026-04-25 12:15 | 4.39917 | 18.52272 | 1211 ft | 1 kts | 100° |
| 2026-04-25 12:15 | 4.39921 | 18.52264 | 1211 ft | 0 kts | 156° |
| 2026-04-25 12:15 | 4.39926 | 18.52263 | 1211 ft | 0 kts | 172° |
| 2026-04-25 12:15 | 4.39930 | 18.52262 | 1211 ft | 0 kts | 165° |
| 2026-04-25 12:18 | 4.39925 | 18.52264 | 1211 ft | 2 kts | 163° |
| 2026-04-25 12:18 | 4.39895 | 18.52273 | 1211 ft | 6 kts | 165° |
| 2026-04-25 12:19 | 4.39833 | 18.52224 | 1211 ft | 10 kts | 252° |
| 2026-04-25 12:19 | 4.39801 | 18.52106 | 1209 ft | 14 kts | 255° |
| 2026-04-25 12:19 | 4.39779 | 18.52016 | 1208 ft | 11 kts | 271° |
| 2026-04-25 12:20 | 4.39829 | 18.51962 | 1208 ft | 12 kts | 343° |
| 2026-04-25 12:20 | 4.39926 | 18.51936 | 1209 ft | 16 kts | 346° |
| 2026-04-25 12:20 | 4.40057 | 18.51902 | 1212 ft | 22 kts | 345° |
| 2026-04-25 12:20 | 4.40235 | 18.51856 | 1214 ft | 29 kts | 345° |
| 2026-04-25 12:21 | 4.40459 | 18.51798 | 1214 ft | 36 kts | 344° |
| 2026-04-25 12:21 | 4.40721 | 18.51729 | 1217 ft | 37 kts | 345° |
| 2026-04-25 12:21 | 4.40936 | 18.51674 | 1219 ft | 18 kts | 345° |
| 2026-04-25 12:21 | 4.41019 | 18.51675 | 1220 ft | 9 kts | 21° |
| 2026-04-25 12:22 | 4.41031 | 18.51648 | 1221 ft | 6 kts | 201° |
| 2026-04-25 12:22 | 4.40994 | 18.51658 | 1220 ft | 0 kts | 164° |
| 2026-04-25 12:22 | 4.40781 | 18.51714 | 1217 ft | 73 kts | 166° |
| 2026-04-25 12:23 | 4.40025 | 18.51911 | 1212 ft | 146 kts | 166° |
| 2026-04-25 12:23 | 4.38882 | 18.52205 | 1513 ft | 180 kts | 164° |
| 2026-04-25 12:23 | 4.37653 | 18.52495 | 2274 ft | 191 kts | 173° |
| 2026-04-25 12:23 | 4.36335 | 18.52172 | 2970 ft | 206 kts | 216° |
| 2026-04-25 12:24 | 4.35524 | 18.51001 | 3690 ft | 215 kts | 252° |
| 2026-04-25 12:24 | 4.35450 | 18.49497 | 4406 ft | 227 kts | 285° |
| 2026-04-25 12:24 | 4.36101 | 18.48032 | 5126 ft | 239 kts | 298° |
| 2026-04-25 12:24 | 4.36856 | 18.46494 | 5866 ft | 253 kts | 296° |
| 2026-04-25 12:25 | 4.37599 | 18.44857 | 6565 ft | 268 kts | 295° |
| 2026-04-25 12:25 | 4.38375 | 18.43125 | 7279 ft | 282 kts | 295° |
| 2026-04-25 12:25 | 4.39192 | 18.41309 | 7964 ft | 291 kts | 296° |
| 2026-04-25 12:25 | 4.40040 | 18.39446 | 8699 ft | 302 kts | 296° |
| 2026-04-25 12:26 | 4.40925 | 18.37500 | 9362 ft | 313 kts | 297° |
| 2026-04-25 12:26 | 4.41847 | 18.35479 | 10079 ft | 323 kts | 297° |
| 2026-04-25 12:26 | 4.42803 | 18.33402 | 10651 ft | 337 kts | 296° |
| 2026-04-25 12:26 | 4.43824 | 18.31182 | 10827 ft | 362 kts | 296° |
| 2026-04-25 12:27 | 4.44897 | 18.28834 | 11184 ft | 380 kts | 296° |
| 2026-04-25 12:27 | 4.46010 | 18.26400 | 11816 ft | 388 kts | 296° |
| 2026-04-25 12:27 | 4.47138 | 18.23933 | 12498 ft | 393 kts | 296° |
| 2026-04-25 12:27 | 4.48269 | 18.21461 | 13170 ft | 398 kts | 296° |
| 2026-04-25 12:28 | 4.49419 | 18.18939 | 13834 ft | 401 kts | 295° |
| 2026-04-25 12:28 | 4.50590 | 18.16378 | 14460 ft | 406 kts | 295° |
| 2026-04-25 12:28 | 4.51775 | 18.13781 | 15111 ft | 408 kts | 295° |
| 2026-04-25 12:28 | 4.52953 | 18.11200 | 15723 ft | 412 kts | 295° |
| 2026-04-25 12:29 | 4.54141 | 18.08598 | 16313 ft | 415 kts | 295° |
| 2026-04-25 12:29 | 4.55344 | 18.05961 | 16820 ft | 419 kts | 295° |
| 2026-04-25 12:29 | 4.56550 | 18.03312 | 17401 ft | 421 kts | 295° |
| 2026-04-25 12:29 | 4.57782 | 18.00605 | 17862 ft | 427 kts | 295° |
| 2026-04-25 12:30 | 4.59018 | 17.97882 | 18388 ft | 429 kts | 294° |
| 2026-04-25 12:30 | 4.60255 | 17.95159 | 18877 ft | 433 kts | 294° |
| 2026-04-25 12:30 | 4.61504 | 17.92416 | 19360 ft | 435 kts | 294° |
| 2026-04-25 12:30 | 4.62758 | 17.89663 | 19840 ft | 438 kts | 294° |
| 2026-04-25 12:31 | 4.64021 | 17.86888 | 20294 ft | 440 kts | 294° |
| 2026-04-25 12:31 | 4.64959 | 17.83974 | 20634 ft | 444 kts | 278° |
| 2026-04-25 12:31 | 4.65045 | 17.80859 | 21120 ft | 444 kts | 266° |
| 2026-04-25 12:31 | 4.64803 | 17.77788 | 21536 ft | 447 kts | 265° |
| 2026-04-25 12:32 | 4.64592 | 17.74684 | 21885 ft | 450 kts | 266° |
| 2026-04-25 12:32 | 4.64442 | 17.71559 | 22302 ft | 452 kts | 267° |
| 2026-04-25 12:32 | 4.64304 | 17.68392 | 22697 ft | 454 kts | 267° |
| 2026-04-25 12:32 | 4.64171 | 17.65242 | 23049 ft | 457 kts | 267° |
| 2026-04-25 12:33 | 4.64042 | 17.62044 | 23409 ft | 459 kts | 267° |
| 2026-04-25 12:33 | 4.63915 | 17.58845 | 23716 ft | 463 kts | 267° |
| 2026-04-25 12:33 | 4.63790 | 17.55627 | 24004 ft | 466 kts | 267° |
| 2026-04-25 12:33 | 4.63665 | 17.52358 | 24342 ft | 468 kts | 267° |
| 2026-04-25 12:34 | 4.63542 | 17.49114 | 24587 ft | 472 kts | 267° |
| 2026-04-25 12:34 | 4.63418 | 17.45805 | 24900 ft | 474 kts | 267° |
| 2026-04-25 12:34 | 4.63295 | 17.42535 | 25186 ft | 476 kts | 267° |
| 2026-04-25 12:34 | 4.63213 | 17.40322 | 25370 ft | 477 kts | 267° |
| 2026-04-25 12:35 | 4.63051 | 17.35884 | 25739 ft | 480 kts | 267° |
| 2026-04-25 12:35 | 4.62929 | 17.32526 | 25990 ft | 483 kts | 267° |
| 2026-04-25 12:35 | 4.62805 | 17.29176 | 26297 ft | 484 kts | 267° |
| 2026-04-25 12:35 | 4.62679 | 17.25783 | 26526 ft | 486 kts | 267° |
| 2026-04-25 12:36 | 4.62553 | 17.22399 | 26767 ft | 488 kts | 267° |
| 2026-04-25 12:36 | 4.62426 | 17.18988 | 26967 ft | 489 kts | 267° |
| 2026-04-25 12:36 | 4.62301 | 17.15619 | 27164 ft | 491 kts | 267° |
| 2026-04-25 12:36 | 4.62174 | 17.12198 | 27428 ft | 493 kts | 267° |
| 2026-04-25 12:37 | 4.62181 | 17.08754 | 27667 ft | 495 kts | 272° |
| 2026-04-25 12:37 | 4.62521 | 17.05321 | 27906 ft | 496 kts | 277° |
| 2026-04-25 12:37 | 4.63051 | 17.01919 | 28152 ft | 497 kts | 278° |
| 2026-04-25 12:37 | 4.63603 | 16.98489 | 28392 ft | 499 kts | 278° |
| 2026-04-25 12:38 | 4.64150 | 16.95044 | 28631 ft | 500 kts | 278° |
| 2026-04-25 12:38 | 4.64692 | 16.91633 | 28955 ft | 499 kts | 278° |
| 2026-04-25 12:38 | 4.65241 | 16.88223 | 29264 ft | 499 kts | 278° |
| 2026-04-25 12:38 | 4.65801 | 16.84781 | 29573 ft | 499 kts | 278° |
| 2026-04-25 12:39 | 4.66367 | 16.81337 | 29862 ft | 499 kts | 278° |
| 2026-04-25 12:39 | 4.66922 | 16.77936 | 30212 ft | 497 kts | 278° |
| 2026-04-25 12:39 | 4.67481 | 16.74540 | 30576 ft | 495 kts | 279° |
| 2026-04-25 12:39 | 4.68044 | 16.71131 | 30810 ft | 496 kts | 279° |
| 2026-04-25 12:40 | 4.68608 | 16.67723 | 31157 ft | 495 kts | 279° |
| 2026-04-25 12:40 | 4.69166 | 16.64355 | 31446 ft | 494 kts | 279° |
| 2026-04-25 12:40 | 4.69728 | 16.60967 | 31790 ft | 492 kts | 279° |
| 2026-04-25 12:40 | 4.70291 | 16.57566 | 32065 ft | 492 kts | 279° |
| 2026-04-25 12:41 | 4.70843 | 16.54223 | 32340 ft | 492 kts | 279° |
| 2026-04-25 12:41 | 4.71404 | 16.50821 | 32665 ft | 490 kts | 279° |
| 2026-04-25 12:41 | 4.71959 | 16.47488 | 32973 ft | 489 kts | 279° |
| 2026-04-25 12:41 | 4.72521 | 16.44141 | 33265 ft | 489 kts | 279° |
| 2026-04-25 12:42 | 4.73083 | 16.40789 | 33583 ft | 488 kts | 279° |
| 2026-04-25 12:42 | 4.73458 | 16.38553 | 33707 ft | 489 kts | 279° |
| 2026-04-25 12:42 | 4.74200 | 16.34099 | 34136 ft | 487 kts | 279° |
| 2026-04-25 12:42 | 4.74751 | 16.30770 | 34466 ft | 485 kts | 279° |
| 2026-04-25 12:43 | 4.75309 | 16.27412 | 34674 ft | 486 kts | 279° |
| 2026-04-25 12:43 | 4.75856 | 16.24125 | 35009 ft | 483 kts | 279° |
| 2026-04-25 12:43 | 4.76955 | 16.17465 | 35527 ft | 482 kts | 279° |
| 2026-04-25 12:44 | 4.77499 | 16.14175 | 35741 ft | 482 kts | 278° |
| 2026-04-25 12:44 | 4.78046 | 16.10871 | 35950 ft | 482 kts | 279° |
| 2026-04-25 12:45 | 4.79690 | 16.00912 | 35951 ft | 481 kts | 279° |
| 2026-04-25 12:45 | 4.81307 | 15.91081 | 35956 ft | 473 kts | 279° |
| 2026-04-25 12:46 | 4.82375 | 15.84612 | 35957 ft | 474 kts | 278° |
| 2026-04-25 12:46 | 4.83452 | 15.78089 | 35957 ft | 476 kts | 279° |
| 2026-04-25 12:47 | 4.84538 | 15.71517 | 35959 ft | 479 kts | 279° |
| 2026-04-25 12:47 | 4.85625 | 15.64911 | 35960 ft | 483 kts | 279° |
| 2026-04-25 12:48 | 4.86709 | 15.58286 | 35963 ft | 483 kts | 279° |
| 2026-04-25 12:48 | 4.87797 | 15.51662 | 35957 ft | 480 kts | 279° |
| 2026-04-25 12:49 | 4.88878 | 15.45120 | 35954 ft | 479 kts | 279° |
| 2026-04-25 12:49 | 4.89964 | 15.38533 | 35958 ft | 479 kts | 278° |
| 2026-04-25 12:50 | 4.91042 | 15.31942 | 35966 ft | 478 kts | 278° |
| 2026-04-25 12:50 | 4.92112 | 15.25414 | 35977 ft | 478 kts | 279° |
| 2026-04-25 12:51 | 4.93193 | 15.18826 | 35981 ft | 478 kts | 279° |
| 2026-04-25 12:51 | 4.94272 | 15.12256 | 35982 ft | 478 kts | 279° |
| 2026-04-25 12:52 | 4.95345 | 15.05721 | 35980 ft | 478 kts | 279° |
| 2026-04-25 12:52 | 4.96412 | 14.99167 | 35978 ft | 478 kts | 278° |
| 2026-04-25 12:53 | 4.97489 | 14.92599 | 35979 ft | 477 kts | 278° |
| 2026-04-25 12:53 | 4.98565 | 14.86035 | 35981 ft | 479 kts | 278° |
| 2026-04-25 12:54 | 4.99644 | 14.79448 | 35990 ft | 479 kts | 279° |
| 2026-04-25 12:54 | 5.00720 | 14.72887 | 35993 ft | 479 kts | 278° |
| 2026-04-25 12:55 | 5.01616 | 14.67431 | 35989 ft | 477 kts | 278° |
| 2026-04-25 12:55 | 5.02859 | 14.59815 | 35992 ft | 476 kts | 278° |
| 2026-04-25 12:56 | 5.03929 | 14.53242 | 35991 ft | 477 kts | 278° |
| 2026-04-25 12:56 | 5.04997 | 14.46692 | 35992 ft | 479 kts | 278° |
| 2026-04-25 12:57 | 5.06065 | 14.40133 | 35997 ft | 478 kts | 278° |
| 2026-04-25 12:57 | 5.07129 | 14.33567 | 35994 ft | 477 kts | 278° |
| 2026-04-25 12:58 | 5.08194 | 14.27024 | 35994 ft | 476 kts | 278° |
| 2026-04-25 12:58 | 5.09262 | 14.20463 | 35997 ft | 478 kts | 278° |
| 2026-04-25 12:59 | 5.10334 | 14.13869 | 35994 ft | 478 kts | 278° |
| 2026-04-25 12:59 | 5.11399 | 14.07312 | 35998 ft | 476 kts | 278° |
| 2026-04-25 13:00 | 5.12283 | 14.01869 | 35998 ft | 476 kts | 278° |
| 2026-04-25 13:00 | 5.13527 | 13.94226 | 35997 ft | 478 kts | 278° |
| 2026-04-25 13:01 | 5.14598 | 13.87636 | 35999 ft | 479 kts | 278° |
| 2026-04-25 13:01 | 5.15657 | 13.81048 | 35998 ft | 477 kts | 278° |
| 2026-04-25 13:02 | 5.16711 | 13.74501 | 35996 ft | 475 kts | 278° |
| 2026-04-25 13:02 | 5.17771 | 13.67959 | 35992 ft | 476 kts | 278° |
| 2026-04-25 13:03 | 5.18826 | 13.61435 | 35992 ft | 477 kts | 278° |
| 2026-04-25 13:03 | 5.19889 | 13.54855 | 35987 ft | 479 kts | 278° |
| 2026-04-25 13:04 | 5.20948 | 13.48293 | 35982 ft | 478 kts | 278° |
| 2026-04-25 13:04 | 5.22010 | 13.41709 | 35986 ft | 476 kts | 277° |
| 2026-04-25 13:05 | 5.23061 | 13.35173 | 35988 ft | 475 kts | 277° |
| 2026-04-25 13:05 | 5.24105 | 13.28672 | 35984 ft | 476 kts | 277° |
| 2026-04-25 13:06 | 5.25160 | 13.22124 | 35985 ft | 476 kts | 277° |
| 2026-04-25 13:06 | 5.26215 | 13.15562 | 35985 ft | 476 kts | 277° |
| 2026-04-25 13:07 | 5.27260 | 13.09025 | 35987 ft | 476 kts | 277° |
| 2026-04-25 13:07 | 5.28313 | 13.02492 | 35987 ft | 476 kts | 277° |
| 2026-04-25 13:08 | 5.29363 | 12.95939 | 35983 ft | 475 kts | 277° |
| 2026-04-25 13:08 | 5.30400 | 12.89441 | 35986 ft | 475 kts | 277° |
| 2026-04-25 13:09 | 5.31447 | 12.82894 | 35985 ft | 478 kts | 277° |
| 2026-04-25 13:09 | 5.32505 | 12.76294 | 35976 ft | 477 kts | 277° |
| 2026-04-25 13:10 | 5.33549 | 12.69778 | 35976 ft | 475 kts | 277° |
| 2026-04-25 13:10 | 5.34594 | 12.63239 | 35977 ft | 475 kts | 277° |
| 2026-04-25 13:11 | 5.35636 | 12.56718 | 35978 ft | 475 kts | 277° |
| 2026-04-25 13:11 | 5.36678 | 12.50177 | 35980 ft | 475 kts | 277° |
| 2026-04-25 13:12 | 5.37718 | 12.43664 | 35977 ft | 475 kts | 277° |
| 2026-04-25 13:12 | 5.38587 | 12.38230 | 35978 ft | 475 kts | 277° |
| 2026-04-25 13:13 | 5.39799 | 12.30618 | 35985 ft | 475 kts | 277° |
| 2026-04-25 13:13 | 5.40840 | 12.24080 | 35988 ft | 475 kts | 277° |
| 2026-04-25 13:14 | 5.41882 | 12.17523 | 35987 ft | 475 kts | 277° |
| 2026-04-25 13:14 | 5.42915 | 12.11038 | 36001 ft | 474 kts | 277° |
| 2026-04-25 13:15 | 5.43951 | 12.04521 | 36002 ft | 474 kts | 277° |
| 2026-04-25 13:15 | 5.44981 | 11.97994 | 36004 ft | 474 kts | 277° |
| 2026-04-25 13:16 | 5.46013 | 11.91496 | 36011 ft | 474 kts | 277° |
| 2026-04-25 13:16 | 5.47048 | 11.84965 | 36012 ft | 474 kts | 277° |
| 2026-04-25 13:17 | 5.48078 | 11.78453 | 36011 ft | 475 kts | 277° |
| 2026-04-25 13:17 | 5.49111 | 11.71924 | 36012 ft | 473 kts | 277° |
| 2026-04-25 13:18 | 5.50139 | 11.65424 | 36008 ft | 472 kts | 277° |
| 2026-04-25 13:18 | 5.51171 | 11.58895 | 36004 ft | 475 kts | 277° |
| 2026-04-25 13:19 | 5.52197 | 11.52391 | 35998 ft | 476 kts | 277° |
| 2026-04-25 13:19 | 5.53062 | 11.46899 | 35996 ft | 476 kts | 278° |
| 2026-04-25 13:20 | 5.54259 | 11.39290 | 35995 ft | 475 kts | 278° |
| 2026-04-25 13:20 | 5.55293 | 11.32730 | 35993 ft | 476 kts | 278° |
| 2026-04-25 13:21 | 5.56320 | 11.26205 | 35994 ft | 476 kts | 277° |
| 2026-04-25 13:21 | 5.57345 | 11.19673 | 35990 ft | 475 kts | 277° |
| 2026-04-25 13:22 | 5.58374 | 11.13137 | 35997 ft | 475 kts | 278° |
| 2026-04-25 13:23 | 5.59916 | 11.03290 | 36003 ft | 477 kts | 278° |
| 2026-04-25 13:23 | 5.60948 | 10.96746 | 36007 ft | 476 kts | 278° |
| 2026-04-25 13:24 | 5.61969 | 10.90225 | 36023 ft | 475 kts | 278° |
| 2026-04-25 13:24 | 5.62995 | 10.83673 | 36041 ft | 477 kts | 278° |
| 2026-04-25 13:25 | 5.64023 | 10.77100 | 36059 ft | 478 kts | 278° |
| 2026-04-25 13:25 | 5.64585 | 10.70479 | 36070 ft | 475 kts | 270° |
| 2026-04-25 13:26 | 5.64818 | 10.63875 | 36066 ft | 475 kts | 271° |
| 2026-04-25 13:26 | 5.65110 | 10.57242 | 36077 ft | 476 kts | 271° |
| 2026-04-25 13:27 | 5.65398 | 10.50612 | 36077 ft | 476 kts | 271° |
| 2026-04-25 13:27 | 5.65689 | 10.43977 | 36081 ft | 475 kts | 271° |
| 2026-04-25 13:28 | 5.65975 | 10.37392 | 36085 ft | 476 kts | 271° |
| 2026-04-25 13:28 | 5.66266 | 10.30729 | 36102 ft | 477 kts | 271° |
| 2026-04-25 13:29 | 5.66557 | 10.24119 | 36095 ft | 475 kts | 271° |
| 2026-04-25 13:29 | 5.66847 | 10.17528 | 36123 ft | 474 kts | 271° |
| 2026-04-25 13:30 | 5.67272 | 10.07615 | 36165 ft | 475 kts | 271° |
| 2026-04-25 13:31 | 5.67699 | 9.97684 | 36186 ft | 476 kts | 271° |
| 2026-04-25 13:31 | 5.67985 | 9.91053 | 36178 ft | 475 kts | 271° |
| 2026-04-25 13:32 | 5.68273 | 9.84444 | 36141 ft | 476 kts | 271° |
| 2026-04-25 13:32 | 5.68558 | 9.77820 | 36114 ft | 476 kts | 271° |
| 2026-04-25 13:33 | 5.68843 | 9.71168 | 36085 ft | 475 kts | 271° |
| 2026-04-25 13:33 | 5.69122 | 9.64573 | 36059 ft | 475 kts | 271° |
| 2026-04-25 13:34 | 5.69401 | 9.57973 | 36031 ft | 476 kts | 271° |
| 2026-04-25 13:34 | 5.69682 | 9.51292 | 35999 ft | 476 kts | 272° |
| 2026-04-25 13:35 | 5.69963 | 9.44678 | 35990 ft | 475 kts | 272° |
| 2026-04-25 13:35 | 5.70245 | 9.38039 | 35986 ft | 475 kts | 272° |
| 2026-04-25 13:36 | 5.70531 | 9.31452 | 35955 ft | 476 kts | 273° |
| 2026-04-25 13:36 | 5.71483 | 9.24853 | 35952 ft | 479 kts | 280° |
| 2026-04-25 13:37 | 5.72654 | 9.18244 | 35934 ft | 483 kts | 279° |
| 2026-04-25 13:37 | 5.73784 | 9.11595 | 35914 ft | 484 kts | 279° |
| 2026-04-25 13:38 | 5.74914 | 9.04983 | 35915 ft | 481 kts | 279° |
| 2026-04-25 13:38 | 5.76033 | 8.98406 | 35894 ft | 480 kts | 279° |
| 2026-04-25 13:39 | 5.77158 | 8.91792 | 35880 ft | 480 kts | 279° |
| 2026-04-25 13:39 | 5.78297 | 8.85207 | 35870 ft | 482 kts | 280° |
| 2026-04-25 13:40 | 5.79571 | 8.78617 | 35857 ft | 482 kts | 280° |
| 2026-04-25 13:40 | 5.80836 | 8.72024 | 35850 ft | 481 kts | 280° |
| 2026-04-25 13:41 | 5.82097 | 8.65448 | 35844 ft | 480 kts | 280° |
| 2026-04-25 13:41 | 5.83346 | 8.58894 | 35844 ft | 481 kts | 280° |
| 2026-04-25 13:42 | 5.84599 | 8.52294 | 35843 ft | 481 kts | 280° |
| 2026-04-25 13:42 | 5.85830 | 8.45694 | 35836 ft | 481 kts | 279° |
| 2026-04-25 13:43 | 5.86991 | 8.39147 | 35829 ft | 480 kts | 279° |
| 2026-04-25 13:43 | 5.88175 | 8.32516 | 35830 ft | 481 kts | 279° |
| 2026-04-25 13:44 | 5.89346 | 8.25958 | 35825 ft | 481 kts | 279° |
| 2026-04-25 13:44 | 5.90526 | 8.19360 | 35836 ft | 480 kts | 279° |
| 2026-04-25 13:45 | 5.91698 | 8.12791 | 35838 ft | 479 kts | 279° |
| 2026-04-25 13:45 | 5.92872 | 8.06213 | 35846 ft | 480 kts | 279° |
| 2026-04-25 13:46 | 5.94051 | 7.99604 | 35838 ft | 481 kts | 279° |
| 2026-04-25 13:46 | 5.95218 | 7.93040 | 35840 ft | 481 kts | 279° |
| 2026-04-25 13:47 | 5.96395 | 7.86413 | 35841 ft | 480 kts | 279° |
| 2026-04-25 13:47 | 5.97566 | 7.79843 | 35843 ft | 480 kts | 279° |
| 2026-04-25 13:48 | 5.98734 | 7.73277 | 35844 ft | 480 kts | 279° |
| 2026-04-25 13:48 | 5.99910 | 7.66669 | 35844 ft | 480 kts | 279° |
| 2026-04-25 13:49 | 6.01072 | 7.60103 | 35845 ft | 480 kts | 279° |
| 2026-04-25 13:49 | 6.02243 | 7.53518 | 35833 ft | 480 kts | 279° |
| 2026-04-25 13:50 | 6.03416 | 7.46911 | 35834 ft | 480 kts | 279° |
| 2026-04-25 13:50 | 6.04581 | 7.40327 | 35829 ft | 480 kts | 279° |
| 2026-04-25 13:51 | 6.05737 | 7.33769 | 35835 ft | 480 kts | 279° |
| 2026-04-25 13:51 | 6.06906 | 7.27155 | 35842 ft | 480 kts | 279° |
| 2026-04-25 13:52 | 6.08068 | 7.20580 | 35837 ft | 480 kts | 279° |
| 2026-04-25 13:52 | 6.09227 | 7.14000 | 35840 ft | 479 kts | 279° |
| 2026-04-25 13:53 | 6.10388 | 7.07390 | 35837 ft | 480 kts | 279° |
| 2026-04-25 13:53 | 6.11544 | 7.00827 | 35834 ft | 479 kts | 279° |
| 2026-04-25 13:54 | 6.12735 | 6.94222 | 35833 ft | 479 kts | 279° |
| 2026-04-25 13:54 | 6.13912 | 6.87670 | 35827 ft | 479 kts | 279° |
| 2026-04-25 13:55 | 6.15095 | 6.81082 | 35821 ft | 479 kts | 279° |
| 2026-04-25 13:55 | 6.16268 | 6.74520 | 35814 ft | 478 kts | 279° |
| 2026-04-25 13:56 | 6.17439 | 6.67979 | 35817 ft | 478 kts | 280° |
| 2026-04-25 13:56 | 6.18611 | 6.61435 | 35821 ft | 478 kts | 279° |
| 2026-04-25 13:57 | 6.19794 | 6.54840 | 35825 ft | 479 kts | 279° |
| 2026-04-25 13:57 | 6.20967 | 6.48279 | 35830 ft | 479 kts | 279° |
| 2026-04-25 13:58 | 6.22122 | 6.41729 | 35830 ft | 478 kts | 279° |
| 2026-04-25 13:58 | 6.23280 | 6.35162 | 35828 ft | 478 kts | 279° |
| 2026-04-25 13:59 | 6.24439 | 6.28607 | 35831 ft | 477 kts | 280° |
| 2026-04-25 13:59 | 6.25593 | 6.22056 | 35828 ft | 476 kts | 279° |
| 2026-04-25 14:00 | 6.26752 | 6.15500 | 35824 ft | 478 kts | 279° |
| 2026-04-25 14:00 | 6.27915 | 6.08915 | 35818 ft | 478 kts | 280° |
| 2026-04-25 14:01 | 6.29063 | 6.02391 | 35817 ft | 477 kts | 280° |
| 2026-04-25 14:01 | 6.30218 | 5.95823 | 35821 ft | 477 kts | 280° |
| 2026-04-25 14:02 | 6.31374 | 5.89251 | 35824 ft | 479 kts | 280° |
| 2026-04-25 14:02 | 6.32528 | 5.82695 | 35824 ft | 479 kts | 280° |
| 2026-04-25 14:03 | 6.33680 | 5.76135 | 35816 ft | 476 kts | 280° |
| 2026-04-25 14:03 | 6.34822 | 5.69625 | 35811 ft | 475 kts | 280° |
| 2026-04-25 14:04 | 6.35975 | 5.63056 | 35815 ft | 477 kts | 280° |
| 2026-04-25 14:04 | 6.37123 | 5.56515 | 35816 ft | 476 kts | 280° |
| 2026-04-25 14:05 | 6.38270 | 5.49987 | 35815 ft | 477 kts | 280° |
| 2026-04-25 14:05 | 6.39425 | 5.43391 | 35815 ft | 478 kts | 280° |
| 2026-04-25 14:06 | 6.40565 | 5.36856 | 35823 ft | 477 kts | 280° |
| 2026-04-25 14:06 | 6.41707 | 5.30305 | 35823 ft | 476 kts | 280° |
| 2026-04-25 14:07 | 6.42846 | 5.23776 | 35832 ft | 476 kts | 280° |
| 2026-04-25 14:07 | 6.43992 | 5.17213 | 35829 ft | 478 kts | 280° |
| 2026-04-25 14:08 | 6.45136 | 5.10654 | 35830 ft | 478 kts | 280° |
| 2026-04-25 14:08 | 6.46277 | 5.04109 | 35834 ft | 476 kts | 279° |
| 2026-04-25 14:09 | 6.47417 | 4.97565 | 35832 ft | 476 kts | 279° |
| 2026-04-25 14:09 | 6.48559 | 4.90978 | 35830 ft | 478 kts | 280° |
| 2026-04-25 14:10 | 6.49691 | 4.84435 | 35824 ft | 479 kts | 280° |
| 2026-04-25 14:10 | 6.50826 | 4.77829 | 35822 ft | 477 kts | 279° |
| 2026-04-25 14:11 | 6.51728 | 4.71259 | 35825 ft | 476 kts | 278° |
| 2026-04-25 14:11 | 6.52619 | 4.64690 | 35827 ft | 476 kts | 278° |
| 2026-04-25 14:12 | 6.53527 | 4.58093 | 35826 ft | 478 kts | 278° |
| 2026-04-25 14:12 | 6.54419 | 4.51510 | 35828 ft | 478 kts | 278° |
| 2026-04-25 14:13 | 6.55312 | 4.44913 | 35827 ft | 477 kts | 278° |
| 2026-04-25 14:13 | 6.56212 | 4.38302 | 35828 ft | 476 kts | 278° |
| 2026-04-25 14:14 | 6.57127 | 4.31718 | 35829 ft | 476 kts | 278° |
| 2026-04-25 14:14 | 6.58042 | 4.25156 | 35832 ft | 476 kts | 278° |
| 2026-04-25 14:15 | 6.58957 | 4.18555 | 35836 ft | 477 kts | 278° |
| 2026-04-25 14:15 | 6.59868 | 4.11986 | 35833 ft | 473 kts | 278° |
| 2026-04-25 14:16 | 6.60762 | 4.05495 | 35826 ft | 468 kts | 278° |
| 2026-04-25 14:16 | 6.61215 | 4.02217 | 35721 ft | 470 kts | 278° |
| 2026-04-25 14:16 | 6.61666 | 3.98964 | 35143 ft | 476 kts | 278° |
| 2026-04-25 14:16 | 6.62124 | 3.95668 | 34559 ft | 475 kts | 278° |
| 2026-04-25 14:17 | 6.62579 | 3.92389 | 33977 ft | 470 kts | 278° |
| 2026-04-25 14:17 | 6.63025 | 3.89172 | 33407 ft | 469 kts | 277° |
| 2026-04-25 14:17 | 6.63150 | 3.85881 | 32824 ft | 473 kts | 265° |
| 2026-04-25 14:17 | 6.62633 | 3.82627 | 32300 ft | 479 kts | 258° |
| 2026-04-25 14:18 | 6.61921 | 3.79366 | 31790 ft | 483 kts | 258° |
| 2026-04-25 14:18 | 6.61231 | 3.76024 | 31273 ft | 485 kts | 259° |
| 2026-04-25 14:18 | 6.60597 | 3.72736 | 30770 ft | 486 kts | 259° |
| 2026-04-25 14:18 | 6.59969 | 3.69403 | 30261 ft | 486 kts | 259° |
| 2026-04-25 14:19 | 6.59344 | 3.66058 | 29750 ft | 486 kts | 259° |
| 2026-04-25 14:19 | 6.58729 | 3.62732 | 29248 ft | 487 kts | 259° |
| 2026-04-25 14:19 | 6.58116 | 3.59390 | 28745 ft | 490 kts | 259° |
| 2026-04-25 14:19 | 6.57498 | 3.56000 | 28252 ft | 496 kts | 259° |
| 2026-04-25 14:20 | 6.56880 | 3.52597 | 27766 ft | 498 kts | 259° |
| 2026-04-25 14:20 | 6.56465 | 3.50312 | 27440 ft | 498 kts | 259° |
| 2026-04-25 14:20 | 6.55641 | 3.45783 | 26792 ft | 496 kts | 259° |
| 2026-04-25 14:20 | 6.55018 | 3.42361 | 26301 ft | 496 kts | 259° |
| 2026-04-25 14:21 | 6.54402 | 3.38979 | 25815 ft | 496 kts | 259° |
| 2026-04-25 14:21 | 6.53781 | 3.35569 | 25326 ft | 497 kts | 259° |
| 2026-04-25 14:21 | 6.53158 | 3.32139 | 24834 ft | 497 kts | 259° |
| 2026-04-25 14:21 | 6.52540 | 3.28737 | 24345 ft | 494 kts | 259° |
| 2026-04-25 14:22 | 6.51926 | 3.25358 | 23854 ft | 488 kts | 259° |
| 2026-04-25 14:22 | 6.51321 | 3.22032 | 23367 ft | 482 kts | 259° |
| 2026-04-25 14:22 | 6.50727 | 3.18753 | 22884 ft | 478 kts | 259° |
| 2026-04-25 14:22 | 6.50130 | 3.15475 | 22394 ft | 473 kts | 259° |
| 2026-04-25 14:23 | 6.49541 | 3.12247 | 21917 ft | 469 kts | 258° |
| 2026-04-25 14:23 | 6.48959 | 3.09060 | 21451 ft | 466 kts | 258° |
| 2026-04-25 14:23 | 6.48367 | 3.05849 | 20982 ft | 464 kts | 259° |
| 2026-04-25 14:23 | 6.47790 | 3.02720 | 20510 ft | 455 kts | 259° |
| 2026-04-25 14:24 | 6.47222 | 2.99632 | 20042 ft | 444 kts | 259° |
| 2026-04-25 14:24 | 6.46670 | 2.96616 | 19578 ft | 437 kts | 259° |
| 2026-04-25 14:24 | 6.46120 | 2.93632 | 19115 ft | 437 kts | 259° |
| 2026-04-25 14:24 | 6.45555 | 2.90605 | 18632 ft | 437 kts | 259° |
| 2026-04-25 14:25 | 6.45004 | 2.87642 | 18164 ft | 436 kts | 260° |
| 2026-04-25 14:25 | 6.44455 | 2.84654 | 17695 ft | 432 kts | 260° |
| 2026-04-25 14:25 | 6.43916 | 2.81674 | 17216 ft | 428 kts | 260° |
| 2026-04-25 14:25 | 6.43567 | 2.79722 | 16915 ft | 426 kts | 260° |
| 2026-04-25 14:26 | 6.42876 | 2.75841 | 16304 ft | 424 kts | 260° |
| 2026-04-25 14:26 | 6.42353 | 2.72924 | 15826 ft | 423 kts | 260° |
| 2026-04-25 14:26 | 6.41829 | 2.70027 | 15378 ft | 423 kts | 260° |
| 2026-04-25 14:26 | 6.41302 | 2.67133 | 14908 ft | 420 kts | 260° |
| 2026-04-25 14:27 | 6.40783 | 2.64287 | 14427 ft | 417 kts | 259° |
| 2026-04-25 14:27 | 6.40260 | 2.61421 | 13950 ft | 415 kts | 260° |
| 2026-04-25 14:27 | 6.39738 | 2.58568 | 13484 ft | 415 kts | 259° |
| 2026-04-25 14:27 | 6.39217 | 2.55725 | 13012 ft | 413 kts | 259° |
| 2026-04-25 14:28 | 6.38699 | 2.52904 | 12517 ft | 412 kts | 259° |
| 2026-04-25 14:28 | 6.38181 | 2.50098 | 12018 ft | 407 kts | 259° |
| 2026-04-25 14:28 | 6.37673 | 2.47343 | 11808 ft | 398 kts | 259° |
| 2026-04-25 14:28 | 6.37168 | 2.44586 | 11835 ft | 405 kts | 260° |
| 2026-04-25 14:29 | 6.36655 | 2.41796 | 11836 ft | 408 kts | 259° |
| 2026-04-25 14:29 | 6.36145 | 2.38992 | 11830 ft | 403 kts | 260° |
| 2026-04-25 14:29 | 6.35701 | 2.36269 | 11825 ft | 388 kts | 261° |
| 2026-04-25 14:29 | 6.35298 | 2.33625 | 11685 ft | 373 kts | 261° |
| 2026-04-25 14:30 | 6.34905 | 2.31102 | 11496 ft | 359 kts | 261° |
| 2026-04-25 14:30 | 6.34153 | 2.26314 | 11133 ft | 335 kts | 261° |
| 2026-04-25 14:30 | 6.33801 | 2.24056 | 10932 ft | 325 kts | 261° |
| 2026-04-25 14:31 | 6.33454 | 2.21833 | 10742 ft | 316 kts | 261° |
| 2026-04-25 14:31 | 6.33114 | 2.19677 | 10568 ft | 314 kts | 261° |
| 2026-04-25 14:31 | 6.32767 | 2.17484 | 10375 ft | 318 kts | 262° |
| 2026-04-25 14:31 | 6.32423 | 2.15304 | 10193 ft | 317 kts | 262° |
| 2026-04-25 14:32 | 6.32080 | 2.13118 | 10004 ft | 313 kts | 262° |
| 2026-04-25 14:32 | 6.31743 | 2.10988 | 9806 ft | 308 kts | 262° |
| 2026-04-25 14:32 | 6.31407 | 2.08872 | 9628 ft | 308 kts | 262° |
| 2026-04-25 14:32 | 6.31070 | 2.06730 | 9441 ft | 308 kts | 262° |
| 2026-04-25 14:33 | 6.30738 | 2.04614 | 9248 ft | 307 kts | 262° |
| 2026-04-25 14:33 | 6.30409 | 2.02502 | 9040 ft | 305 kts | 262° |
| 2026-04-25 14:33 | 6.30078 | 2.00391 | 8840 ft | 305 kts | 262° |
| 2026-04-25 14:33 | 6.29745 | 1.98288 | 8669 ft | 303 kts | 262° |
| 2026-04-25 14:34 | 6.29423 | 1.96229 | 8515 ft | 299 kts | 262° |
| 2026-04-25 14:34 | 6.29099 | 1.94165 | 8303 ft | 297 kts | 262° |
| 2026-04-25 14:34 | 6.28774 | 1.92131 | 8095 ft | 294 kts | 261° |
| 2026-04-25 14:34 | 6.28453 | 1.90122 | 7931 ft | 294 kts | 262° |
| 2026-04-25 14:35 | 6.28129 | 1.88069 | 7740 ft | 294 kts | 262° |
| 2026-04-25 14:35 | 6.27811 | 1.86056 | 7500 ft | 293 kts | 262° |
| 2026-04-25 14:35 | 6.27492 | 1.84058 | 7253 ft | 290 kts | 262° |
| 2026-04-25 14:35 | 6.27177 | 1.82052 | 7006 ft | 287 kts | 261° |
| 2026-04-25 14:36 | 6.26869 | 1.80093 | 6767 ft | 284 kts | 261° |
| 2026-04-25 14:36 | 6.26659 | 1.78128 | 6568 ft | 281 kts | 272° |
| 2026-04-25 14:36 | 6.26911 | 1.76172 | 6379 ft | 282 kts | 281° |
| 2026-04-25 14:36 | 6.27244 | 1.74260 | 6181 ft | 276 kts | 279° |
| 2026-04-25 14:37 | 6.27528 | 1.72389 | 5992 ft | 272 kts | 279° |
| 2026-04-25 14:37 | 6.27824 | 1.70502 | 5809 ft | 270 kts | 280° |
| 2026-04-25 14:37 | 6.28124 | 1.68631 | 5619 ft | 272 kts | 279° |
| 2026-04-25 14:37 | 6.28417 | 1.66787 | 5428 ft | 269 kts | 279° |
| 2026-04-25 14:38 | 6.28714 | 1.64919 | 5246 ft | 268 kts | 279° |
| 2026-04-25 14:38 | 6.29014 | 1.63081 | 5056 ft | 267 kts | 278° |
| 2026-04-25 14:38 | 6.29309 | 1.61250 | 4860 ft | 264 kts | 278° |
| 2026-04-25 14:38 | 6.29588 | 1.59438 | 4672 ft | 263 kts | 277° |
| 2026-04-25 14:39 | 6.29867 | 1.57631 | 4479 ft | 256 kts | 277° |
| 2026-04-25 14:39 | 6.30132 | 1.55897 | 4292 ft | 250 kts | 277° |
| 2026-04-25 14:39 | 6.30390 | 1.54180 | 4094 ft | 243 kts | 277° |
| 2026-04-25 14:39 | 6.30646 | 1.52517 | 3899 ft | 237 kts | 277° |
| 2026-04-25 14:40 | 6.30894 | 1.50919 | 3697 ft | 227 kts | 277° |
| 2026-04-25 14:40 | 6.31139 | 1.49392 | 3509 ft | 216 kts | 277° |
| 2026-04-25 14:40 | 6.31374 | 1.47935 | 3336 ft | 204 kts | 275° |
| 2026-04-25 14:40 | 6.31590 | 1.46556 | 3141 ft | 195 kts | 276° |
| 2026-04-25 14:41 | 6.31790 | 1.45243 | 2977 ft | 187 kts | 276° |
| 2026-04-25 14:41 | 6.31990 | 1.43969 | 2777 ft | 183 kts | 275° |
| 2026-04-25 14:41 | 6.32190 | 1.42726 | 2598 ft | 177 kts | 275° |
| 2026-04-25 14:41 | 6.32375 | 1.41526 | 2398 ft | 172 kts | 274° |
| 2026-04-25 14:42 | 6.32559 | 1.40342 | 2201 ft | 169 kts | 274° |
| 2026-04-25 14:42 | 6.32683 | 1.39570 | 2088 ft | 168 kts | 274° |
| 2026-04-25 14:42 | 6.32442 | 1.38117 | 1933 ft | 157 kts | 227° |
| 2026-04-25 14:42 | 6.31605 | 1.37399 | 1981 ft | 160 kts | 219° |
| 2026-04-25 14:43 | 6.30746 | 1.36676 | 1957 ft | 161 kts | 219° |
| 2026-04-25 14:43 | 6.29878 | 1.35963 | 1950 ft | 159 kts | 218° |
| 2026-04-25 14:43 | 6.29006 | 1.35264 | 1959 ft | 161 kts | 218° |
| 2026-04-25 14:43 | 6.28123 | 1.34557 | 1957 ft | 161 kts | 218° |
| 2026-04-25 14:44 | 6.27250 | 1.33861 | 1959 ft | 159 kts | 218° |
| 2026-04-25 14:44 | 6.26374 | 1.33166 | 1961 ft | 159 kts | 218° |
| 2026-04-25 14:44 | 6.25498 | 1.32472 | 1925 ft | 164 kts | 218° |
| 2026-04-25 14:44 | 6.24607 | 1.31766 | 1709 ft | 156 kts | 217° |
| 2026-04-25 14:45 | 6.23761 | 1.31096 | 1541 ft | 153 kts | 218° |
| 2026-04-25 14:45 | 6.22961 | 1.30464 | 1357 ft | 136 kts | 218° |
| 2026-04-25 14:45 | 6.22227 | 1.29882 | 1193 ft | 134 kts | 218° |
| 2026-04-25 14:45 | 6.21488 | 1.29297 | 1011 ft | 135 kts | 217° |
| 2026-04-25 14:46 | 6.20758 | 1.28718 | 831 ft | 131 kts | 217° |
| 2026-04-25 14:46 | 6.20029 | 1.28146 | 684 ft | 133 kts | 217° |
| 2026-04-25 14:46 | 6.19305 | 1.27575 | 517 ft | 134 kts | 217° |
| 2026-04-25 14:46 | 6.18567 | 1.26998 | 328 ft | 132 kts | 216° |
| 2026-04-25 14:47 | 6.17856 | 1.26439 | 156 ft | 129 kts | 217° |
| 2026-04-25 14:47 | 6.17391 | 1.26067 | 70 ft | 123 kts | 217° |
| 2026-04-25 14:47 | 6.16789 | 1.25590 | 76 ft | 43 kts | 219° |
| 2026-04-25 14:47 | 6.16659 | 1.25488 | 75 ft | 15 kts | 218° |
| 2026-04-25 14:48 | 6.16609 | 1.25416 | 76 ft | 9 kts | 277° |
| 2026-04-25 14:48 | 6.16639 | 1.25370 | 77 ft | 7 kts | 308° |
| 2026-04-25 14:48 | 6.16676 | 1.25325 | 78 ft | 10 kts | 315° |
| 2026-04-25 14:48 | 6.16764 | 1.25353 | 78 ft | 17 kts | 38° |
| 2026-04-25 14:49 | 6.16849 | 1.25420 | 78 ft | 13 kts | 38° |
| 2026-04-25 14:49 | 6.16910 | 1.25469 | 79 ft | 9 kts | 38° |
| 2026-04-25 14:49 | 6.16947 | 1.25472 | 79 ft | 3 kts | 340° |
| 2026-04-25 14:49 | 6.16966 | 1.25453 | 79 ft | 4 kts | 308° |
| 2026-04-25 14:50 | 6.16986 | 1.25429 | 79 ft | 4 kts | 308° |
| 2026-04-25 14:50 | 6.16997 | 1.25414 | 80 ft | 1 kts | 308° |
| 2026-04-25 14:50 | 6.16998 | 1.25413 | 80 ft | 0 kts | 308° |